Time;durP1;ratioP1;P1;durP2;ratioP2;P2;SDS_P1;SDS_P2;PMS_P1;PMS_P2;Temp;Humidity;BMP_temperature;BMP_pressure;BME280_temperature;BME280_humidity;BME280_pressure;Samples;Min_cycle;Max_cycle;Signal;HPM_P1;HPM_P2
2023/10/03 00:01:35;;;;;;;40.53;20.77;;;16.20;99.90;;;;;;5114485;28;20409;-54
2023/10/03 00:04:02;;;;;;;44.30;22.30;;;16.20;99.90;;;;;;5114336;28;20198;-51
2023/10/03 00:06:28;;;;;;;40.40;21.20;;;16.20;99.90;;;;;;5114502;28;20506;-51
2023/10/03 00:08:54;;;;;;;47.70;23.20;;;16.20;99.90;;;;;;5114276;28;20416;-50
2023/10/03 00:11:20;;;;;;;40.80;21.70;;;16.20;99.90;;;;;;5114218;28;20175;-50
2023/10/03 00:13:47;;;;;;;43.30;21.27;;;16.20;99.90;;;;;;5113874;28;20634;-51
2023/10/03 00:16:12;;;;;;;42.00;21.17;;;16.20;99.90;;;;;;5113835;28;20416;-52
2023/10/03 00:18:38;;;;;;;48.03;20.77;;;16.20;99.90;;;;;;5113940;28;20421;-50
2023/10/03 00:21:04;;;;;;;40.03;20.37;;;16.20;99.90;;;;;;5114034;28;20187;-52
2023/10/03 00:23:31;;;;;;;41.03;21.60;;;16.20;99.90;;;;;;5114099;28;20184;-50
2023/10/03 00:25:59;;;;;;;41.30;20.37;;;16.10;99.90;;;;;;5113805;28;20259;-50
2023/10/03 00:28:26;;;;;;;36.80;19.70;;;16.20;99.90;;;;;;5113897;28;20447;-51
2023/10/03 00:30:52;;;;;;;35.07;20.60;;;16.20;99.90;;;;;;5113604;28;20419;-49
2023/10/03 00:33:21;;;;;;;50.70;22.70;;;16.10;99.90;;;;;;5113801;28;20413;-50
2023/10/03 00:35:47;;;;;;;42.37;21.93;;;16.10;99.90;;;;;;5113705;28;20419;-51
2023/10/03 00:38:15;;;;;;;41.33;20.30;;;16.10;99.90;;;;;;5113384;28;20482;-51
2023/10/03 00:40:48;;;;;;;41.33;20.37;;;16.20;99.90;;;;;;5113665;28;20192;-49
2023/10/03 00:43:14;;;;;;;39.10;20.70;;;16.20;99.90;;;;;;5112620;28;20888;-52
2023/10/03 00:45:40;;;;;;;39.37;21.03;;;16.20;99.90;;;;;;5113486;28;20463;-50
2023/10/03 00:48:08;;;;;;;39.70;20.03;;;16.20;99.90;;;;;;5113459;28;20274;-51
2023/10/03 00:50:35;;;;;;;36.80;21.53;;;16.20;99.90;;;;;;5113468;28;20264;-51
2023/10/03 00:53:09;;;;;;;49.60;21.87;;;16.10;99.90;;;;;;5113683;28;20522;-50
2023/10/03 00:55:37;;;;;;;38.73;20.17;;;16.10;99.90;;;;;;5113529;28;20433;-50
2023/10/03 00:58:12;;;;;;;35.60;20.30;;;16.10;99.90;;;;;;5112976;28;20772;-55
2023/10/03 01:00:38;;;;;;;37.90;20.67;;;16.10;99.90;;;;;;5113303;28;20414;-51
2023/10/03 01:03:06;;;;;;;38.03;19.07;;;16.10;99.90;;;;;;5112912;28;20413;-52
2023/10/03 01:05:33;;;;;;;40.83;19.80;;;16.00;99.90;;;;;;5113122;28;20464;-50
2023/10/03 01:07:58;;;;;;;37.47;20.13;;;16.00;99.90;;;;;;5113406;28;20414;-50
2023/10/03 01:10:24;;;;;;;37.53;19.10;;;16.00;99.90;;;;;;5113087;28;20412;-49
2023/10/03 01:12:50;;;;;;;41.27;20.60;;;16.00;99.90;;;;;;5112858;28;20264;-51
2023/10/03 01:15:18;;;;;;;38.43;20.33;;;16.00;99.90;;;;;;5113044;28;20412;-51
2023/10/03 01:17:48;;;;;;;44.03;20.20;;;16.00;99.90;;;;;;5112935;28;20224;-50
2023/10/03 01:20:23;;;;;;;40.53;20.70;;;16.00;99.90;;;;;;5112936;28;20417;-50
2023/10/03 01:22:51;;;;;;;45.77;21.47;;;16.00;99.90;;;;;;5112769;28;20408;-50
2023/10/03 01:25:17;;;;;;;38.80;21.40;;;16.00;99.90;;;;;;5112924;28;20472;-51
2023/10/03 01:27:44;;;;;;;43.40;21.60;;;16.00;99.90;;;;;;5112835;28;20419;-50
2023/10/03 01:30:12;;;;;;;42.60;22.47;;;16.00;99.90;;;;;;5112847;28;20242;-51
2023/10/03 01:32:44;;;;;;;40.80;20.27;;;16.00;99.90;;;;;;5112759;28;20436;-51
2023/10/03 01:35:12;;;;;;;42.73;20.20;;;16.00;99.90;;;;;;5112499;28;20413;-50
2023/10/03 01:37:40;;;;;;;44.93;21.63;;;16.00;99.90;;;;;;5112780;28;20416;-50
2023/10/03 01:40:16;;;;;;;40.13;21.00;;;16.00;99.90;;;;;;5112669;28;20407;-50
2023/10/03 01:42:45;;;;;;;34.93;19.80;;;16.00;99.90;;;;;;5112771;28;20410;-49
2023/10/03 01:45:12;;;;;;;34.27;19.73;;;16.00;99.90;;;;;;5112265;28;20429;-49
2023/10/03 01:47:45;;;;;;;37.10;21.13;;;15.90;99.90;;;;;;5112286;28;21003;-49
2023/10/03 01:50:12;;;;;;;43.47;20.90;;;15.90;99.90;;;;;;5112653;28;20405;-53
2023/10/03 01:52:40;;;;;;;38.87;20.87;;;15.90;99.90;;;;;;5112599;28;20417;-50
2023/10/03 01:55:06;;;;;;;37.33;20.53;;;15.90;99.90;;;;;;5116118;28;20426;-52
2023/10/03 01:57:32;;;;;;;39.40;21.43;;;15.90;99.90;;;;;;5117100;28;20434;-50
2023/10/03 01:59:58;;;;;;;36.13;19.63;;;15.80;99.90;;;;;;5116469;28;20907;-50
2023/10/03 02:02:23;;;;;;;43.43;20.33;;;15.80;99.90;;;;;;5116782;28;20185;-50
2023/10/03 02:04:50;;;;;;;42.57;20.70;;;15.80;99.90;;;;;;5116491;28;20645;-50
2023/10/03 02:07:16;;;;;;;35.10;18.60;;;15.80;99.90;;;;;;5116657;28;20210;-51
2023/10/03 02:09:43;;;;;;;42.27;22.60;;;15.70;99.90;;;;;;5116674;28;20447;-51
2023/10/03 02:12:10;;;;;;;35.97;19.60;;;15.70;99.90;;;;;;5116550;28;20411;-50
2023/10/03 02:14:39;;;;;;;38.17;20.20;;;15.70;99.90;;;;;;5116339;28;20787;-51
2023/10/03 02:17:05;;;;;;;35.33;20.13;;;15.70;99.90;;;;;;5116697;28;20407;-57
2023/10/03 02:19:31;;;;;;;45.73;21.37;;;15.70;99.90;;;;;;5116784;27;20413;-51
2023/10/03 02:21:59;;;;;;;39.03;19.63;;;15.70;99.90;;;;;;5116123;28;20410;-50
2023/10/03 02:24:25;;;;;;;34.87;20.10;;;15.70;99.90;;;;;;5116223;28;20240;-50
2023/10/03 02:26:51;;;;;;;44.03;20.60;;;15.70;99.90;;;;;;5115913;28;20487;-50
2023/10/03 02:29:17;;;;;;;32.10;18.33;;;15.70;99.90;;;;;;5116380;28;20450;-52
2023/10/03 02:31:43;;;;;;;35.33;20.30;;;15.70;99.90;;;;;;5116067;28;20261;-50
2023/10/03 02:34:09;;;;;;;33.13;18.63;;;15.80;99.90;;;;;;5116026;28;20187;-50
2023/10/03 02:36:35;;;;;;;40.93;21.03;;;15.80;99.90;;;;;;5116293;28;20777;-54
2023/10/03 02:39:00;;;;;;;42.70;19.90;;;15.80;99.90;;;;;;5116126;28;20184;-50
2023/10/03 02:41:28;;;;;;;41.60;19.00;;;15.80;99.90;;;;;;5115815;28;20631;-51
2023/10/03 02:43:55;;;;;;;39.33;18.90;;;15.90;99.90;;;;;;5115732;28;20232;-50
2023/10/03 02:46:20;;;;;;;32.57;18.50;;;15.80;99.90;;;;;;5115499;27;20464;-51
2023/10/03 02:48:46;;;;;;;36.27;18.53;;;15.90;99.90;;;;;;5115842;28;20422;-52
2023/10/03 02:51:14;;;;;;;34.40;18.00;;;15.90;99.90;;;;;;5115823;28;20594;-50
2023/10/03 02:53:40;;;;;;;31.80;17.17;;;15.90;99.90;;;;;;5115772;28;20186;-53
2023/10/03 02:56:07;;;;;;;28.07;16.37;;;15.90;99.90;;;;;;5115763;28;20507;-53
2023/10/03 02:58:33;;;;;;;36.33;18.10;;;15.90;99.90;;;;;;5115986;28;20412;-51
2023/10/03 03:00:58;;;;;;;30.53;16.33;;;15.90;99.90;;;;;;5115363;28;20777;-51
2023/10/03 03:03:32;;;;;;;30.00;16.60;;;15.90;99.90;;;;;;5115557;28;20174;-49
2023/10/03 03:05:58;;;;;;;28.00;15.37;;;15.90;99.90;;;;;;5114375;28;20205;-51
2023/10/03 03:08:27;;;;;;;27.17;15.77;;;15.90;99.90;;;;;;5115506;28;20432;-51
2023/10/03 03:10:57;;;;;;;30.93;16.97;;;15.80;99.90;;;;;;5115399;28;20441;-50
2023/10/03 03:13:29;;;;;;;29.00;15.77;;;15.80;99.90;;;;;;5115384;28;20420;-51
2023/10/03 03:16:03;;;;;;;28.80;15.70;;;15.80;99.90;;;;;;5115372;28;20759;-50
2023/10/03 03:18:41;;;;;;;25.90;14.00;;;15.90;99.90;;;;;;5115346;28;20452;-51
2023/10/03 03:21:10;;;;;;;32.17;15.10;;;15.80;99.90;;;;;;5115267;28;20438;-53
2023/10/03 03:23:37;;;;;;;31.10;15.13;;;15.90;99.90;;;;;;5115161;28;20555;-51
2023/10/03 03:26:17;;;;;;;27.90;15.60;;;15.90;99.90;;;;;;5115353;28;20447;-50
2023/10/03 03:28:44;;;;;;;31.03;16.00;;;15.90;99.90;;;;;;5115099;28;20416;-51
2023/10/03 03:31:20;;;;;;;26.63;13.83;;;15.90;99.90;;;;;;5114764;28;20425;-51
2023/10/03 03:33:47;;;;;;;31.77;14.93;;;15.90;99.90;;;;;;5114980;28;20448;-50
2023/10/03 03:36:17;;;;;;;25.60;14.73;;;15.90;99.90;;;;;;5114600;28;20412;-50
2023/10/03 03:38:47;;;;;;;26.77;15.23;;;15.90;99.90;;;;;;5114624;28;20909;-51
2023/10/03 03:41:13;;;;;;;31.03;14.10;;;15.90;99.90;;;;;;5114911;28;20413;-51
2023/10/03 03:43:39;;;;;;;24.87;14.67;;;15.90;99.90;;;;;;5114621;28;20915;-51
2023/10/03 03:46:05;;;;;;;26.83;13.80;;;16.00;99.90;;;;;;5114652;28;20457;-51
2023/10/03 03:48:34;;;;;;;23.77;12.67;;;16.00;99.90;;;;;;5114798;28;20189;-51
2023/10/03 03:51:00;;;;;;;28.17;14.63;;;16.00;99.90;;;;;;5114686;28;20184;-51
2023/10/03 03:53:25;;;;;;;26.73;14.27;;;16.00;99.90;;;;;;5114596;27;20431;-51
2023/10/03 03:55:51;;;;;;;24.43;13.30;;;16.00;99.90;;;;;;5114266;28;20411;-50
2023/10/03 03:58:18;;;;;;;23.07;13.60;;;16.00;99.90;;;;;;5114535;28;20256;-52
2023/10/03 04:00:50;;;;;;;21.67;13.47;;;16.00;99.90;;;;;;5114515;28;20658;-53
2023/10/03 04:03:17;;;;;;;23.43;13.07;;;16.00;99.90;;;;;;5114474;28;20430;-51
2023/10/03 04:05:42;;;;;;;25.10;13.63;;;16.00;99.90;;;;;;5114252;28;20453;-51
2023/10/03 04:08:08;;;;;;;27.20;14.40;;;15.90;99.90;;;;;;5114328;28;20751;-53
2023/10/03 04:10:36;;;;;;;24.40;13.20;;;15.80;99.90;;;;;;5114581;28;20183;-51
2023/10/03 04:13:09;;;;;;;24.20;13.70;;;15.80;99.90;;;;;;5114329;28;20680;-51
2023/10/03 04:15:39;;;;;;;27.73;13.97;;;15.80;99.90;;;;;;5114521;28;20460;-50
2023/10/03 04:18:06;;;;;;;19.10;11.63;;;15.80;99.90;;;;;;5113873;28;20412;-52
2023/10/03 04:20:33;;;;;;;22.87;12.70;;;15.70;99.90;;;;;;5114088;28;20412;-51
2023/10/03 04:22:58;;;;;;;22.83;12.97;;;15.70;99.90;;;;;;5114021;28;20444;-51
2023/10/03 04:25:25;;;;;;;20.30;11.77;;;15.70;99.90;;;;;;5114090;28;20512;-51
2023/10/03 04:27:55;;;;;;;22.67;12.37;;;15.70;99.90;;;;;;5113976;28;20207;-51
2023/10/03 04:30:26;;;;;;;24.77;12.93;;;15.70;99.90;;;;;;5113954;27;20411;-51
2023/10/03 04:32:53;;;;;;;21.93;13.27;;;15.80;99.90;;;;;;5113887;28;20531;-51
2023/10/03 04:35:20;;;;;;;21.20;12.00;;;15.80;99.90;;;;;;5113748;28;20420;-51
2023/10/03 04:37:46;;;;;;;24.80;12.93;;;15.90;99.90;;;;;;5113454;28;20513;-52
2023/10/03 04:40:21;;;;;;;18.90;11.57;;;15.90;99.90;;;;;;5113693;28;20918;-51
2023/10/03 04:42:51;;;;;;;30.37;12.70;;;15.80;99.90;;;;;;5113470;28;20406;-51
2023/10/03 04:45:19;;;;;;;22.20;13.33;;;15.80;99.90;;;;;;5113364;28;20558;-51
2023/10/03 04:47:48;;;;;;;21.23;11.70;;;15.80;99.90;;;;;;5113499;28;20451;-52
2023/10/03 04:50:18;;;;;;;24.37;12.53;;;15.80;99.90;;;;;;5113510;28;20496;-51
2023/10/03 04:52:50;;;;;;;22.70;12.10;;;15.70;99.90;;;;;;5113467;28;20401;-51
2023/10/03 04:55:16;;;;;;;22.40;12.67;;;15.70;99.90;;;;;;5113380;28;20473;-51
2023/10/03 04:57:43;;;;;;;24.63;12.47;;;15.70;99.90;;;;;;5113351;28;20422;-51
2023/10/03 05:00:10;;;;;;;26.70;12.90;;;15.70;99.90;;;;;;5113291;28;20414;-51
2023/10/03 05:02:35;;;;;;;20.80;11.50;;;15.70;99.90;;;;;;5113524;28;20415;-51
2023/10/03 05:05:01;;;;;;;22.47;12.20;;;15.70;99.90;;;;;;5113084;28;20414;-52
2023/10/03 05:07:28;;;;;;;22.70;12.53;;;15.80;99.90;;;;;;5113144;28;20209;-50
2023/10/03 05:09:54;;;;;;;22.00;11.30;;;15.80;99.90;;;;;;5112913;28;20189;-51
2023/10/03 05:12:20;;;;;;;22.87;12.27;;;15.80;99.90;;;;;;5113121;28;20410;-51
2023/10/03 05:14:47;;;;;;;20.97;11.87;;;15.80;99.90;;;;;;5113109;28;20186;-51
2023/10/03 05:17:14;;;;;;;23.77;12.63;;;15.80;99.90;;;;;;5113023;28;20508;-52
2023/10/03 05:19:41;;;;;;;23.93;12.50;;;15.80;99.90;;;;;;5112720;28;20971;-52
2023/10/03 05:22:08;;;;;;;24.70;12.47;;;15.80;99.90;;;;;;5113235;28;20416;-50
2023/10/03 05:24:34;;;;;;;22.73;12.23;;;15.90;99.90;;;;;;5112816;28;20468;-51
2023/10/03 05:27:00;;;;;;;24.83;12.17;;;15.90;99.90;;;;;;5112830;28;20566;-52
2023/10/03 05:29:28;;;;;;;23.03;12.60;;;15.90;99.90;;;;;;5112291;28;20556;-52
2023/10/03 05:31:54;;;;;;;23.03;12.40;;;15.90;99.90;;;;;;5112531;28;20711;-51
2023/10/03 05:34:23;;;;;;;26.43;12.20;;;16.00;99.90;;;;;;5113166;28;20409;-52
2023/10/03 05:36:49;;;;;;;24.07;13.00;;;15.90;99.90;;;;;;5112845;28;20270;-52
2023/10/03 05:39:15;;;;;;;23.83;11.40;;;15.90;99.90;;;;;;5112761;28;20408;-51
2023/10/03 05:41:42;;;;;;;25.77;11.90;;;16.00;99.90;;;;;;5112653;28;20420;-52
2023/10/03 05:44:11;;;;;;;26.87;12.33;;;15.90;99.90;;;;;;5112895;28;20417;-52
2023/10/03 05:46:42;;;;;;;19.00;11.00;;;15.90;99.90;;;;;;5112833;28;20488;-51
2023/10/03 05:49:09;;;;;;;25.60;13.07;;;15.80;99.90;;;;;;5112882;28;20504;-52
2023/10/03 05:51:34;;;;;;;29.20;13.20;;;15.90;99.90;;;;;;5112913;28;20560;-52
2023/10/03 05:54:01;;;;;;;26.60;12.30;;;15.90;99.90;;;;;;5112363;28;20510;-52
2023/10/03 05:56:26;;;;;;;21.53;11.40;;;15.90;99.90;;;;;;5112564;28;20198;-52
2023/10/03 05:58:52;;;;;;;21.93;11.93;;;15.90;99.90;;;;;;5112286;28;20933;-54
2023/10/03 06:01:18;;;;;;;23.23;11.50;;;15.90;99.90;;;;;;5112307;28;20179;-52
2023/10/03 06:03:43;;;;;;;26.93;13.03;;;16.00;99.90;;;;;;5112397;28;20264;-52
2023/10/03 06:06:10;;;;;;;23.87;13.40;;;16.00;99.90;;;;;;5112426;28;20205;-51
2023/10/03 06:08:35;;;;;;;23.60;12.23;;;16.00;99.90;;;;;;5112781;28;20199;-51
2023/10/03 06:11:05;;;;;;;24.17;12.23;;;16.00;99.90;;;;;;5112136;28;20414;-52
2023/10/03 06:13:31;;;;;;;25.10;13.30;;;16.10;99.90;;;;;;5112119;28;20653;-52
2023/10/03 06:15:59;;;;;;;22.40;11.30;;;16.30;96.50;;;;;;5112386;28;20464;-50
2023/10/03 06:18:27;;;;;;;24.47;12.17;;;16.40;51.20;;;;;;5111972;28;20712;-53
2023/10/03 06:20:52;;;;;;;26.20;12.50;;;16.40;24.90;;;;;;5112357;28;20438;-52
2023/10/03 06:23:18;;;;;;;27.40;12.43;;;16.60;1.00;;;;;;5111871;28;20907;-51
2023/10/03 06:25:44;;;;;;;25.10;12.17;;;16.70;1.00;;;;;;5112287;28;20206;-52
2023/10/03 06:28:09;;;;;;;27.20;12.57;;;16.90;1.00;;;;;;5112289;28;20204;-52
2023/10/03 06:30:37;;;;;;;32.20;13.27;;;17.20;99.90;;;;;;5112224;28;20313;-52
2023/10/03 06:33:05;;;;;;;25.70;12.97;;;17.40;1.00;;;;;;5112260;28;20655;-52
2023/10/03 06:35:32;;;;;;;25.33;12.37;;;17.50;1.00;;;;;;5111985;28;20433;-52
2023/10/03 06:37:57;;;;;;;26.10;11.70;;;17.70;1.00;;;;;;5112191;28;20418;-54
2023/10/03 06:40:23;;;;;;;25.73;12.53;;;17.90;99.90;;;;;;5114261;28;20422;-52
2023/10/03 06:42:48;;;;;;;28.50;13.00;;;18.20;99.90;;;;;;5115693;28;20546;-52
2023/10/03 06:45:14;;;;;;;27.17;13.20;;;18.40;99.90;;;;;;5116048;28;20227;-53
2023/10/03 06:47:40;;;;;;;26.67;11.87;;;18.60;99.90;;;;;;5116134;28;20551;-52
2023/10/03 06:50:07;;;;;;;28.57;12.23;;;18.70;99.90;;;;;;5115920;28;20616;-52
2023/10/03 06:52:34;;;;;;;23.03;11.30;;;18.80;99.90;;;;;;5115796;28;20425;-52
2023/10/03 06:55:00;;;;;;;31.07;12.17;;;19.00;99.90;;;;;;5115756;28;20468;-51
2023/10/03 06:57:25;;;;;;;24.90;12.27;;;19.10;99.50;;;;;;5115402;28;20422;-52
2023/10/03 06:59:52;;;;;;;27.87;12.77;;;19.20;59.80;;;;;;5115696;28;20185;-52
2023/10/03 07:02:18;;;;;;;25.80;12.37;;;19.40;44.30;;;;;;5115395;28;20180;-52
2023/10/03 07:04:44;;;;;;;26.20;11.57;;;19.50;28.50;;;;;;5115397;28;20412;-52
2023/10/03 07:07:10;;;;;;;23.80;12.47;;;19.60;19.30;;;;;;5115692;28;20260;-52
2023/10/03 07:09:38;;;;;;;32.47;12.23;;;19.70;12.50;;;;;;5115768;28;20504;-51
2023/10/03 07:12:07;;;;;;;27.20;12.67;;;19.70;4.90;;;;;;5115345;28;20183;-53
2023/10/03 07:14:33;;;;;;;31.90;12.73;;;19.90;1.00;;;;;;5115174;28;20422;-53
2023/10/03 07:16:59;;;;;;;25.03;12.57;;;20.00;1.00;;;;;;5115374;28;20428;-53
2023/10/03 07:19:24;;;;;;;25.73;13.10;;;20.10;1.00;;;;;;5115137;28;20230;-52
2023/10/03 07:21:53;;;;;;;24.67;11.83;;;20.20;1.00;;;;;;5115285;28;20176;-52
2023/10/03 07:24:20;;;;;;;30.17;11.93;;;20.20;1.00;;;;;;5115219;28;20229;-52
2023/10/03 07:26:46;;;;;;;29.93;12.70;;;20.20;1.00;;;;;;5114771;28;20458;-53
2023/10/03 07:29:12;;;;;;;22.77;11.50;;;20.40;1.00;;;;;;5114852;28;20414;-52
2023/10/03 07:31:38;;;;;;;29.70;12.40;;;20.40;1.00;;;;;;5115129;28;20173;-52
2023/10/03 07:34:04;;;;;;;29.73;11.87;;;20.50;1.00;;;;;;5114711;28;20177;-51
2023/10/03 07:36:29;;;;;;;25.27;12.30;;;20.40;1.00;;;;;;5115024;28;20422;-52
2023/10/03 07:38:55;;;;;;;26.70;12.30;;;20.40;1.00;;;;;;5114931;28;20409;-53
2023/10/03 07:41:21;;;;;;;27.77;13.00;;;20.40;1.00;;;;;;5114581;28;20176;-54
2023/10/03 07:43:47;;;;;;;27.50;12.17;;;20.40;1.00;;;;;;5114848;28;20180;-53
2023/10/03 07:46:19;;;;;;;26.90;13.30;;;20.30;1.00;;;;;;5114399;28;20454;-53
2023/10/03 07:48:45;;;;;;;25.00;13.13;;;20.40;1.00;;;;;;5114824;28;20402;-54
2023/10/03 07:51:17;;;;;;;25.23;12.10;;;20.40;1.00;;;;;;5114187;28;20782;-52
2023/10/03 07:53:42;;;;;;;26.13;12.63;;;20.40;1.00;;;;;;5114671;27;20181;-54
2023/10/03 07:56:30;;;;;;;23.23;12.20;;;20.40;1.00;;;;;;5114852;28;20426;-52
2023/10/03 07:58:57;;;;;;;25.63;12.30;;;20.40;1.00;;;;;;5114288;28;20540;-52
2023/10/03 08:01:26;;;;;;;31.70;13.80;;;20.50;1.00;;;;;;5114231;28;20420;-52
2023/10/03 08:03:53;;;;;;;27.63;13.63;;;20.50;1.00;;;;;;5114280;28;20403;-53
2023/10/03 08:06:27;;;;;;;25.77;12.83;;;20.60;1.00;;;;;;5114336;28;20453;-51
2023/10/03 08:08:55;;;;;;;30.70;12.80;;;20.90;1.00;;;;;;5114379;28;20426;-52
2023/10/03 08:11:28;;;;;;;25.03;12.57;;;21.20;1.00;;;;;;5114273;28;20422;-53
2023/10/03 08:14:01;;;;;;;25.23;12.40;;;21.20;1.00;;;;;;5114293;27;20414;-52
2023/10/03 08:16:27;;;;;;;28.80;13.70;;;21.20;1.00;;;;;;5113952;28;20891;-53
2023/10/03 08:19:01;;;;;;;25.23;13.47;;;21.10;1.00;;;;;;5113854;28;20459;-52
2023/10/03 08:21:28;;;;;;;25.93;13.33;;;21.10;1.00;;;;;;5114121;28;20478;-52
2023/10/03 08:23:58;;;;;;;27.23;12.50;;;21.00;1.00;;;;;;5113860;28;20465;-51
2023/10/03 08:26:27;;;;;;;26.30;12.77;;;21.30;1.00;;;;;;5113957;28;20450;-52
2023/10/03 08:29:03;;;;;;;25.90;12.70;;;21.90;1.00;;;;;;5114054;27;20419;-52
2023/10/03 08:31:29;;;;;;;23.47;11.40;;;22.50;1.00;;;;;;5113711;28;20898;-52
2023/10/03 08:33:55;;;;;;;24.80;12.03;;;22.80;1.00;;;;;;5113840;28;20406;-54
2023/10/03 08:36:28;;;;;;;27.40;13.30;;;22.80;1.00;;;;;;5113579;28;20447;-54
2023/10/03 08:39:04;;;;;;;24.13;12.30;;;23.10;1.00;;;;;;5113805;28;20185;-53
2023/10/03 08:41:47;;;;;;;21.87;11.23;;;23.70;1.00;;;;;;5113743;28;20402;-53
2023/10/03 08:44:13;;;;;;;23.80;11.30;;;23.70;1.00;;;;;;5113490;28;20411;-54
2023/10/03 08:46:55;;;;;;;23.43;11.37;;;23.50;1.00;;;;;;5113650;27;20454;-52
2023/10/03 08:49:26;;;;;;;25.50;11.70;;;23.10;1.00;;;;;;5113331;28;20423;-52
2023/10/03 08:51:52;;;;;;;23.00;11.17;;;22.90;1.00;;;;;;5113501;28;20445;-53
2023/10/03 08:54:18;;;;;;;21.83;11.40;;;22.80;1.00;;;;;;5113422;28;20926;-53
2023/10/03 08:56:44;;;;;;;20.97;11.10;;;22.90;1.00;;;;;;5113425;28;20496;-53
2023/10/03 08:59:09;;;;;;;20.87;10.77;;;23.00;1.00;;;;;;5113298;28;20414;-52
2023/10/03 09:01:43;;;;;;;20.93;10.47;;;22.70;1.00;;;;;;5113364;28;20173;-53
2023/10/03 09:04:16;;;;;;;23.73;9.87;;;22.40;1.00;;;;;;5112765;28;20535;-52
2023/10/03 09:06:43;;;;;;;21.23;9.30;;;22.20;1.00;;;;;;5113218;28;20454;-53
2023/10/03 09:09:11;;;;;;;25.10;10.40;;;22.10;1.00;;;;;;5113109;28;20528;-51
2023/10/03 09:11:37;;;;;;;18.23;9.97;;;21.90;1.00;;;;;;5112951;28;20471;-52
2023/10/03 09:14:07;;;;;;;16.97;9.40;;;21.80;1.00;;;;;;5113040;28;20454;-52
2023/10/03 09:16:39;;;;;;;18.70;9.33;;;21.70;1.00;;;;;;5113248;28;20509;-53
2023/10/03 09:19:06;;;;;;;19.80;9.50;;;21.60;1.00;;;;;;5112694;28;20425;-51
2023/10/03 09:21:33;;;;;;;17.83;8.77;;;21.60;1.00;;;;;;5113005;28;20418;-53
2023/10/03 09:24:09;;;;;;;16.90;9.30;;;21.50;1.00;;;;;;5112841;28;20470;-51
2023/10/03 09:26:46;;;;;;;15.07;8.93;;;21.70;1.00;;;;;;5112850;28;20492;-52
2023/10/03 09:29:18;;;;;;;15.50;8.20;;;21.70;1.00;;;;;;5112821;28;20515;-51
2023/10/03 09:31:48;;;;;;;20.10;8.90;;;21.80;1.00;;;;;;5112568;28;20867;-53
2023/10/03 09:34:15;;;;;;;19.33;9.30;;;21.80;1.00;;;;;;5113042;28;20415;-51
2023/10/03 09:36:41;;;;;;;16.53;8.40;;;21.60;1.00;;;;;;5112856;28;20468;-52
2023/10/03 09:39:22;;;;;;;19.20;8.70;;;21.50;1.00;;;;;;5112784;28;20414;-52
2023/10/03 09:41:54;;;;;;;22.33;10.10;;;21.60;1.00;;;;;;5112816;28;20587;-52
2023/10/03 09:44:29;;;;;;;21.63;9.33;;;21.60;1.00;;;;;;5112837;28;20917;-53
2023/10/03 09:47:06;;;;;;;18.20;10.00;;;21.80;1.00;;;;;;5112626;28;20949;-52
2023/10/03 09:49:38;;;;;;;17.00;9.40;;;22.10;1.00;;;;;;5112752;28;20460;-52
2023/10/03 09:52:18;;;;;;;19.03;9.00;;;22.00;1.00;;;;;;5112302;28;21001;-52
2023/10/03 09:54:44;;;;;;;18.67;9.40;;;22.10;1.00;;;;;;5112925;28;20505;-52
2023/10/03 09:57:16;;;;;;;21.57;9.40;;;22.30;1.00;;;;;;5112469;28;20422;-52
2023/10/03 09:59:46;;;;;;;19.63;9.73;;;22.20;1.00;;;;;;5112904;28;20433;-53
2023/10/03 10:02:13;;;;;;;25.07;10.70;;;21.80;1.00;;;;;;5112853;28;20410;-52
2023/10/03 10:04:41;;;;;;;17.20;9.67;;;21.50;1.00;;;;;;5112512;28;20835;-52
2023/10/03 10:07:29;;;;;;;18.90;9.50;;;21.30;1.00;;;;;;5112357;28;20462;-53
2023/10/03 10:10:07;;;;;;;24.60;9.10;;;21.30;1.00;;;;;;5112593;28;20973;-53
2023/10/03 10:12:37;;;;;;;19.37;8.30;;;21.40;1.00;;;;;;5112448;28;20490;-53
2023/10/03 10:17:45;;;;;;;17.80;8.13;;;22.00;1.00;;;;;;5116544;28;20405;-53
2023/10/03 10:20:38;;;;;;;15.30;7.67;;;22.00;1.00;;;;;;5116442;28;20436;-52
2023/10/03 10:23:13;;;;;;;14.97;7.07;;;21.80;1.00;;;;;;5116002;28;20422;-53
2023/10/03 10:25:50;;;;;;;16.93;7.10;;;21.50;1.00;;;;;;5116296;28;20432;-52
2023/10/03 10:28:27;;;;;;;14.77;7.20;;;21.20;1.00;;;;;;5116003;28;20917;-54
2023/10/03 10:31:11;;;;;;;14.97;6.70;;;21.10;1.00;;;;;;5116297;28;20490;-52
2023/10/03 10:33:37;;;;;;;13.70;6.93;;;20.90;1.00;;;;;;5116200;28;20418;-52
2023/10/03 10:36:03;;;;;;;13.60;6.67;;;20.90;1.00;;;;;;5115753;28;20808;-52
2023/10/03 10:38:32;;;;;;;13.13;7.20;;;20.80;1.00;;;;;;5116092;28;20414;-54
2023/10/03 10:41:17;;;;;;;11.23;6.20;;;20.80;1.00;;;;;;5116063;28;20458;-53
2023/10/03 10:44:09;;;;;;;11.10;5.70;;;20.70;1.00;;;;;;5115992;28;20430;-53
2023/10/03 10:46:38;;;;;;;16.07;6.37;;;20.70;1.00;;;;;;5115819;28;20450;-53
2023/10/03 10:49:06;;;;;;;12.97;6.83;;;20.60;1.00;;;;;;5115799;28;20426;-52
2023/10/03 10:51:34;;;;;;;20.07;6.93;;;20.50;1.00;;;;;;5115907;28;20418;-53
2023/10/03 10:54:00;;;;;;;11.53;7.20;;;20.50;1.00;;;;;;5115770;28;20501;-53
2023/10/03 10:56:28;;;;;;;11.97;7.40;;;20.20;1.00;;;;;;5115437;28;20854;-52
2023/10/03 10:59:12;;;;;;;17.47;8.60;;;20.10;99.40;;;;;;5115622;28;20217;-53
2023/10/03 11:01:39;;;;;;;11.43;7.80;;;19.70;99.90;;;;;;5115833;28;20474;-52
2023/10/03 11:04:06;;;;;;;11.77;7.63;;;19.40;99.90;;;;;;5115628;28;20414;-52
2023/10/03 11:06:31;;;;;;;14.23;6.50;;;19.10;99.90;;;;;;5115496;28;20503;-51
2023/10/03 11:08:57;;;;;;;7.80;5.70;;;18.80;1.00;;;;;;5115209;28;20777;-50
2023/10/03 11:11:34;;;;;;;6.63;4.80;;;18.70;1.00;;;;;;5115188;28;20223;-51
2023/10/03 11:13:59;;;;;;;8.17;5.27;;;18.50;99.90;;;;;;5115461;28;20174;-51
2023/10/03 11:16:26;;;;;;;10.37;5.20;;;18.50;99.90;;;;;;5115399;28;20946;-51
2023/10/03 11:18:54;;;;;;;8.37;5.90;;;18.50;99.90;;;;;;5115317;28;20188;-52
2023/10/03 11:21:21;;;;;;;9.77;5.60;;;18.50;1.00;;;;;;5115265;28;20821;-53
2023/10/03 11:24:15;;;;;;;8.03;5.30;;;18.70;1.00;;;;;;5115078;28;20474;-54
2023/10/03 11:26:52;;;;;;;8.97;5.33;;;18.70;1.00;;;;;;5114296;28;20457;-52
2023/10/03 11:29:50;;;;;;;8.53;4.50;;;18.70;99.90;;;;;;5115195;28;20411;-52
2023/10/03 11:32:25;;;;;;;10.67;4.27;;;18.60;1.00;;;;;;5091579;28;20806;-51
2023/10/03 11:34:56;;;;;;;7.73;4.33;;;18.60;1.00;;;;;;5113623;28;20841;-52
2023/10/03 11:37:44;;;;;;;6.93;3.50;;;18.60;1.00;;;;;;5114779;28;20413;-52
2023/10/03 11:40:16;;;;;;;8.33;2.90;;;18.60;21.20;;;;;;5114991;28;20414;-51
2023/10/03 11:42:44;;;;;;;7.20;3.30;;;18.40;99.90;;;;;;5115145;28;20410;-53
2023/10/03 11:45:15;;;;;;;11.63;3.20;;;18.30;99.90;;;;;;5114865;28;20413;-52
2023/10/03 11:47:41;;;;;;;7.70;1.90;;;18.20;1.00;;;;;;5114478;28;20948;-53
2023/10/03 11:50:07;;;;;;;10.07;2.00;;;18.00;99.90;;;;;;5114756;28;20432;-51
2023/10/03 11:52:33;;;;;;;4.17;1.90;;;18.00;99.90;;;;;;5114818;28;20184;-53
2023/10/03 11:54:58;;;;;;;12.03;2.10;;;18.10;99.90;;;;;;5114730;28;20417;-52
2023/10/03 11:57:24;;;;;;;9.23;1.80;;;18.10;1.00;;;;;;5114242;28;20183;-52
2023/10/03 11:59:50;;;;;;;7.73;1.70;;;18.20;99.90;;;;;;5114597;28;20308;-53
2023/10/03 12:02:16;;;;;;;10.67;2.10;;;18.10;99.90;;;;;;5114760;28;20639;-52
2023/10/03 12:04:41;;;;;;;12.57;1.97;;;18.00;99.90;;;;;;5114516;28;20655;-54
2023/10/03 12:07:07;;;;;;;4.13;1.60;;;17.90;99.90;;;;;;5114337;28;20219;-52
2023/10/03 12:09:32;;;;;;;3.27;1.13;;;17.70;20.90;;;;;;5114401;28;20266;-51
2023/10/03 12:11:58;;;;;;;3.63;1.40;;;17.50;1.00;;;;;;5114096;28;20711;-49
2023/10/03 12:14:23;;;;;;;9.57;1.80;;;17.40;1.00;;;;;;5114252;28;20529;-51
2023/10/03 12:16:51;;;;;;;3.87;1.17;;;17.20;99.90;;;;;;5114227;28;20191;-51
2023/10/03 12:19:21;;;;;;;4.90;1.17;;;17.20;99.90;;;;;;5114162;28;20187;-51
2023/10/03 12:21:47;;;;;;;5.27;1.30;;;17.00;99.90;;;;;;5114386;28;20424;-51
2023/10/03 12:24:12;;;;;;;4.53;1.17;;;16.90;95.80;;;;;;5113830;28;20479;-50
2023/10/03 12:26:38;;;;;;;4.80;1.27;;;16.90;1.00;;;;;;5113660;28;20568;-50
2023/10/03 12:29:06;;;;;;;3.33;0.97;;;16.80;1.00;;;;;;5113601;28;20232;-50
2023/10/03 12:31:35;;;;;;;5.53;1.47;;;16.70;99.90;;;;;;5113957;28;20191;-51
2023/10/03 12:34:01;;;;;;;10.50;2.13;;;16.50;99.90;;;;;;5113530;28;20418;-51
2023/10/03 12:36:32;;;;;;;9.43;1.30;;;16.30;57.90;;;;;;5113865;28;20423;-51
2023/10/03 12:38:59;;;;;;;2.67;1.30;;;16.00;1.00;;;;;;5113596;28;20426;-50
2023/10/03 12:41:31;;;;;;;1.97;0.93;;;15.80;99.90;;;;;;5113387;28;20907;-51
2023/10/03 12:43:57;;;;;;;4.00;1.00;;;15.80;1.00;;;;;;5113781;28;20506;-50